sensor_id;sensor_type;location;lat;lon;timestamp;temperature;humidity
52965;DHT22;42923;53.220;6.528;2022-12-11T00:02:19;-1.40;99.90
52965;DHT22;42923;53.220;6.528;2022-12-11T00:04:44;-1.40;99.90
52965;DHT22;42923;53.220;6.528;2022-12-11T00:07:10;-1.10;99.90
52965;DHT22;42923;53.220;6.528;2022-12-11T00:09:36;-1.40;99.90
52965;DHT22;42923;53.220;6.528;2022-12-11T00:12:02;-1.40;99.90
52965;DHT22;42923;53.220;6.528;2022-12-11T00:14:30;-1.40;99.90
52965;DHT22;42923;53.220;6.528;2022-12-11T00:16:56;-1.40;99.90
52965;DHT22;42923;53.220;6.528;2022-12-11T00:19:22;-1.40;99.90
52965;DHT22;42923;53.220;6.528;2022-12-11T00:21:48;-1.30;99.90
52965;DHT22;42923;53.220;6.528;2022-12-11T00:24:14;-1.30;99.90
52965;DHT22;42923;53.220;6.528;2022-12-11T00:26:39;-1.30;99.90
52965;DHT22;42923;53.220;6.528;2022-12-11T00:29:05;-1.30;99.90
52965;DHT22;42923;53.220;6.528;2022-12-11T00:31:33;-1.30;99.90
52965;DHT22;42923;53.220;6.528;2022-12-11T00:34:00;-1.30;99.90
52965;DHT22;42923;53.220;6.528;2022-12-11T00:36:27;-1.30;99.90
52965;DHT22;42923;53.220;6.528;2022-12-11T00:38:53;-1.30;99.90
52965;DHT22;42923;53.220;6.528;2022-12-11T00:41:19;-1.30;99.90
52965;DHT22;42923;53.220;6.528;2022-12-11T00:43:46;-1.20;99.90
52965;DHT22;42923;53.220;6.528;2022-12-11T00:46:12;-1.20;99.90
52965;DHT22;42923;53.220;6.528;2022-12-11T00:48:38;-1.20;99.90
52965;DHT22;42923;53.220;6.528;2022-12-11T00:51:04;-1.20;99.90
52965;DHT22;42923;53.220;6.528;2022-12-11T00:53:30;-1.20;99.90
52965;DHT22;42923;53.220;6.528;2022-12-11T00:55:56;-1.20;99.90
52965;DHT22;42923;53.220;6.528;2022-12-11T00:58:22;-1.10;99.90
52965;DHT22;42923;53.220;6.528;2022-12-11T01:00:48;-1.10;99.90
52965;DHT22;42923;53.220;6.528;2022-12-11T01:03:16;-1.10;99.90
52965;DHT22;42923;53.220;6.528;2022-12-11T01:05:50;-1.10;99.90
52965;DHT22;42923;53.220;6.528;2022-12-11T01:08:16;-1.10;99.90
52965;DHT22;42923;53.220;6.528;2022-12-11T01:10:43;-1.10;99.90
52965;DHT22;42923;53.220;6.528;2022-12-11T01:13:09;-1.10;99.90
52965;DHT22;42923;53.220;6.528;2022-12-11T01:15:41;-1.00;99.90
52965;DHT22;42923;53.220;6.528;2022-12-11T01:18:07;-1.10;99.90
52965;DHT22;42923;53.220;6.528;2022-12-11T01:20:33;-1.00;99.90
52965;DHT22;42923;53.220;6.528;2022-12-11T01:22:59;-1.00;99.90
52965;DHT22;42923;53.220;6.528;2022-12-11T01:25:26;-1.00;99.90
52965;DHT22;42923;53.220;6.528;2022-12-11T01:27:53;-1.00;99.90
52965;DHT22;42923;53.220;6.528;2022-12-11T01:30:21;-1.00;99.90
52965;DHT22;42923;53.220;6.528;2022-12-11T01:32:48;-0.50;99.90
52965;DHT22;42923;53.220;6.528;2022-12-11T01:35:14;-1.00;99.90
52965;DHT22;42923;53.220;6.528;2022-12-11T01:37:40;-1.00;99.90
52965;DHT22;42923;53.220;6.528;2022-12-11T01:40:06;-0.90;99.90
52965;DHT22;42923;53.220;6.528;2022-12-11T01:42:33;-0.90;99.90
52965;DHT22;42923;53.220;6.528;2022-12-11T01:47:56;-0.90;99.90
52965;DHT22;42923;53.220;6.528;2022-12-11T01:50:23;-0.90;99.90
52965;DHT22;42923;53.220;6.528;2022-12-11T01:52:50;-0.90;99.90
52965;DHT22;42923;53.220;6.528;2022-12-11T01:55:16;-0.80;99.90
52965;DHT22;42923;53.220;6.528;2022-12-11T01:57:46;-0.80;99.90
52965;DHT22;42923;53.220;6.528;2022-12-11T02:00:13;-0.80;99.90
52965;DHT22;42923;53.220;6.528;2022-12-11T02:02:39;-0.80;99.90
52965;DHT22;42923;53.220;6.528;2022-12-11T02:05:06;-0.70;99.90
52965;DHT22;42923;53.220;6.528;2022-12-11T02:07:37;-0.80;99.90
52965;DHT22;42923;53.220;6.528;2022-12-11T02:10:05;-0.80;99.90
52965;DHT22;42923;53.220;6.528;2022-12-11T02:15:25;-0.80;99.90
52965;DHT22;42923;53.220;6.528;2022-12-11T02:18:38;-0.80;99.90
52965;DHT22;42923;53.220;6.528;2022-12-11T02:21:21;-0.70;99.90
52965;DHT22;42923;53.220;6.528;2022-12-11T02:27:29;-0.70;99.90
52965;DHT22;42923;53.220;6.528;2022-12-11T02:30:05;-0.70;99.90
52965;DHT22;42923;53.220;6.528;2022-12-11T02:32:39;-0.70;99.90
52965;DHT22;42923;53.220;6.528;2022-12-11T02:35:18;-0.70;99.90
52965;DHT22;42923;53.220;6.528;2022-12-11T02:37:47;-0.70;99.90
52965;DHT22;42923;53.220;6.528;2022-12-11T02:40:19;-0.70;99.90
52965;DHT22;42923;53.220;6.528;2022-12-11T02:42:47;-0.70;99.90
52965;DHT22;42923;53.220;6.528;2022-12-11T02:45:15;-0.70;99.90
52965;DHT22;42923;53.220;6.528;2022-12-11T02:47:44;-0.70;99.90
52965;DHT22;42923;53.220;6.528;2022-12-11T02:50:15;-0.70;99.90
52965;DHT22;42923;53.220;6.528;2022-12-11T02:52:43;-0.50;99.90
52965;DHT22;42923;53.220;6.528;2022-12-11T02:55:11;-0.60;99.90
52965;DHT22;42923;53.220;6.528;2022-12-11T02:57:46;-0.60;99.90
52965;DHT22;42923;53.220;6.528;2022-12-11T03:00:12;-0.60;99.90
52965;DHT22;42923;53.220;6.528;2022-12-11T03:02:39;-0.60;99.90
52965;DHT22;42923;53.220;6.528;2022-12-11T03:05:05;-0.60;99.90
52965;DHT22;42923;53.220;6.528;2022-12-11T03:07:34;-0.60;99.90
52965;DHT22;42923;53.220;6.528;2022-12-11T03:10:00;-0.60;99.90
52965;DHT22;42923;53.220;6.528;2022-12-11T03:12:29;-0.60;99.90
52965;DHT22;42923;53.220;6.528;2022-12-11T03:14:57;-0.50;99.90
52965;DHT22;42923;53.220;6.528;2022-12-11T03:17:38;-0.50;99.90
52965;DHT22;42923;53.220;6.528;2022-12-11T03:20:24;-0.50;99.90
52965;DHT22;42923;53.220;6.528;2022-12-11T03:23:25;-0.50;99.90
52965;DHT22;42923;53.220;6.528;2022-12-11T03:25:55;-0.50;99.90
52965;DHT22;42923;53.220;6.528;2022-12-11T03:31:12;-0.50;99.90
52965;DHT22;42923;53.220;6.528;2022-12-11T03:33:41;-0.50;99.90
52965;DHT22;42923;53.220;6.528;2022-12-11T03:36:11;-0.50;99.90
52965;DHT22;42923;53.220;6.528;2022-12-11T03:38:59;-0.40;99.90
52965;DHT22;42923;53.220;6.528;2022-12-11T03:41:27;-0.50;99.90
52965;DHT22;42923;53.220;6.528;2022-12-11T03:43:56;-0.50;99.90
52965;DHT22;42923;53.220;6.528;2022-12-11T03:46:26;-0.40;99.90
52965;DHT22;42923;53.220;6.528;2022-12-11T03:48:55;-0.50;99.90
52965;DHT22;42923;53.220;6.528;2022-12-11T03:51:24;-0.40;99.90
52965;DHT22;42923;53.220;6.528;2022-12-11T03:53:51;-0.40;99.90
52965;DHT22;42923;53.220;6.528;2022-12-11T03:56:19;-0.20;99.90
52965;DHT22;42923;53.220;6.528;2022-12-11T03:58:46;-0.50;99.90
52965;DHT22;42923;53.220;6.528;2022-12-11T04:01:12;-0.40;99.90
52965;DHT22;42923;53.220;6.528;2022-12-11T04:03:37;-0.40;99.90
52965;DHT22;42923;53.220;6.528;2022-12-11T04:06:04;-0.40;99.90
52965;DHT22;42923;53.220;6.528;2022-12-11T04:08:29;-0.40;99.90
52965;DHT22;42923;53.220;6.528;2022-12-11T04:10:55;-0.40;99.90
52965;DHT22;42923;53.220;6.528;2022-12-11T04:13:40;-0.40;99.90
52965;DHT22;42923;53.220;6.528;2022-12-11T04:16:07;-0.20;99.90
52965;DHT22;42923;53.220;6.528;2022-12-11T04:18:33;-0.40;99.90
52965;DHT22;42923;53.220;6.528;2022-12-11T04:21:18;-0.40;99.90
52965;DHT22;42923;53.220;6.528;2022-12-11T04:24:02;-0.40;99.90
52965;DHT22;42923;53.220;6.528;2022-12-11T04:26:41;-0.40;99.90
52965;DHT22;42923;53.220;6.528;2022-12-11T04:29:07;-0.40;99.90
52965;DHT22;42923;53.220;6.528;2022-12-11T04:31:33;-0.30;99.90
52965;DHT22;42923;53.220;6.528;2022-12-11T04:33:58;-0.40;99.90
52965;DHT22;42923;53.220;6.528;2022-12-11T04:36:24;0.10;99.90
52965;DHT22;42923;53.220;6.528;2022-12-11T04:38:50;-0.40;99.90
52965;DHT22;42923;53.220;6.528;2022-12-11T04:41:16;-0.30;99.90
52965;DHT22;42923;53.220;6.528;2022-12-11T04:43:42;-0.40;99.90
52965;DHT22;42923;53.220;6.528;2022-12-11T04:46:17;-0.30;99.90
52965;DHT22;42923;53.220;6.528;2022-12-11T04:48:43;-0.40;99.90
52965;DHT22;42923;53.220;6.528;2022-12-11T04:51:09;-0.30;99.90
52965;DHT22;42923;53.220;6.528;2022-12-11T04:53:36;-0.40;99.90
52965;DHT22;42923;53.220;6.528;2022-12-11T04:56:10;-0.30;99.90
52965;DHT22;42923;53.220;6.528;2022-12-11T04:58:37;-0.30;99.90
52965;DHT22;42923;53.220;6.528;2022-12-11T05:01:16;-0.30;99.90
52965;DHT22;42923;53.220;6.528;2022-12-11T05:03:42;-0.30;99.90
52965;DHT22;42923;53.220;6.528;2022-12-11T05:06:10;-0.30;99.90
52965;DHT22;42923;53.220;6.528;2022-12-11T05:08:37;-0.30;99.90
52965;DHT22;42923;53.220;6.528;2022-12-11T05:11:07;-0.30;99.90
52965;DHT22;42923;53.220;6.528;2022-12-11T05:13:34;-0.30;99.90
52965;DHT22;42923;53.220;6.528;2022-12-11T05:16:03;-0.30;99.90
52965;DHT22;42923;53.220;6.528;2022-12-11T05:18:29;-0.30;99.90
52965;DHT22;42923;53.220;6.528;2022-12-11T05:21:01;-0.30;99.90
52965;DHT22;42923;53.220;6.528;2022-12-11T05:23:27;-0.20;99.90
52965;DHT22;42923;53.220;6.528;2022-12-11T05:25:58;0.20;99.90
52965;DHT22;42923;53.220;6.528;2022-12-11T05:28:25;-0.20;99.90
52965;DHT22;42923;53.220;6.528;2022-12-11T05:31:00;-0.20;99.90
52965;DHT22;42923;53.220;6.528;2022-12-11T05:33:26;-0.20;99.90
52965;DHT22;42923;53.220;6.528;2022-12-11T05:35:52;-0.20;99.90
52965;DHT22;42923;53.220;6.528;2022-12-11T05:38:18;-0.20;99.90
52965;DHT22;42923;53.220;6.528;2022-12-11T05:40:44;-0.20;99.90
52965;DHT22;42923;53.220;6.528;2022-12-11T05:43:10;-0.20;99.90
52965;DHT22;42923;53.220;6.528;2022-12-11T05:45:36;-0.20;99.90
52965;DHT22;42923;53.220;6.528;2022-12-11T05:48:01;-0.20;99.90
52965;DHT22;42923;53.220;6.528;2022-12-11T05:50:27;-0.20;99.90
52965;DHT22;42923;53.220;6.528;2022-12-11T05:52:53;-0.20;99.90
52965;DHT22;42923;53.220;6.528;2022-12-11T05:55:18;-0.20;99.90
52965;DHT22;42923;53.220;6.528;2022-12-11T05:57:44;-0.20;99.90
52965;DHT22;42923;53.220;6.528;2022-12-11T06:00:12;0.10;99.90
52965;DHT22;42923;53.220;6.528;2022-12-11T06:02:37;-0.20;99.90
52965;DHT22;42923;53.220;6.528;2022-12-11T06:05:03;-0.20;99.90
52965;DHT22;42923;53.220;6.528;2022-12-11T06:07:29;-0.20;99.90
52965;DHT22;42923;53.220;6.528;2022-12-11T06:09:55;-0.20;99.90
52965;DHT22;42923;53.220;6.528;2022-12-11T06:12:21;-0.20;99.90
52965;DHT22;42923;53.220;6.528;2022-12-11T06:14:46;-0.20;99.90
52965;DHT22;42923;53.220;6.528;2022-12-11T06:17:12;-0.20;99.90
52965;DHT22;42923;53.220;6.528;2022-12-11T06:19:38;-0.20;99.90
52965;DHT22;42923;53.220;6.528;2022-12-11T06:22:04;-0.20;99.90
52965;DHT22;42923;53.220;6.528;2022-12-11T06:24:29;-0.20;99.90
52965;DHT22;42923;53.220;6.528;2022-12-11T06:26:55;-0.20;99.90
52965;DHT22;42923;53.220;6.528;2022-12-11T06:29:21;-0.20;99.90
52965;DHT22;42923;53.220;6.528;2022-12-11T06:31:47;-0.20;99.90
52965;DHT22;42923;53.220;6.528;2022-12-11T06:34:12;-0.20;99.90
52965;DHT22;42923;53.220;6.528;2022-12-11T06:36:38;-0.20;99.90
52965;DHT22;42923;53.220;6.528;2022-12-11T06:39:04;-0.20;99.90
52965;DHT22;42923;53.220;6.528;2022-12-11T06:41:30;-0.20;99.90
52965;DHT22;42923;53.220;6.528;2022-12-11T06:43:56;-0.20;99.90
52965;DHT22;42923;53.220;6.528;2022-12-11T06:46:22;-0.20;99.90
52965;DHT22;42923;53.220;6.528;2022-12-11T06:48:48;-0.20;99.90
52965;DHT22;42923;53.220;6.528;2022-12-11T06:51:16;-0.20;99.90
52965;DHT22;42923;53.220;6.528;2022-12-11T06:53:42;-0.10;99.90
52965;DHT22;42923;53.220;6.528;2022-12-11T06:56:13;-0.20;99.90
52965;DHT22;42923;53.220;6.528;2022-12-11T06:58:41;-0.10;99.90
52965;DHT22;42923;53.220;6.528;2022-12-11T07:01:25;-0.20;99.90
52965;DHT22;42923;53.220;6.528;2022-12-11T07:03:56;-0.20;99.90
52965;DHT22;42923;53.220;6.528;2022-12-11T07:06:22;-0.20;99.90
52965;DHT22;42923;53.220;6.528;2022-12-11T07:08:48;-0.20;99.90
52965;DHT22;42923;53.220;6.528;2022-12-11T07:11:17;-0.20;99.90
52965;DHT22;42923;53.220;6.528;2022-12-11T07:13:43;-0.20;99.90
52965;DHT22;42923;53.220;6.528;2022-12-11T07:16:12;-0.20;99.90
52965;DHT22;42923;53.220;6.528;2022-12-11T07:18:39;-0.20;99.90
52965;DHT22;42923;53.220;6.528;2022-12-11T07:21:06;-0.20;99.90
52965;DHT22;42923;53.220;6.528;2022-12-11T07:23:33;-0.20;99.90
52965;DHT22;42923;53.220;6.528;2022-12-11T07:26:07;-0.20;99.90
52965;DHT22;42923;53.220;6.528;2022-12-11T07:28:34;-0.20;99.90
52965;DHT22;42923;53.220;6.528;2022-12-11T07:31:05;-0.20;99.90
52965;DHT22;42923;53.220;6.528;2022-12-11T07:33:31;0.30;99.90
52965;DHT22;42923;53.220;6.528;2022-12-11T07:36:01;-0.10;99.90
52965;DHT22;42923;53.220;6.528;2022-12-11T07:38:27;-0.20;99.90
52965;DHT22;42923;53.220;6.528;2022-12-11T07:40:53;-0.10;99.90
52965;DHT22;42923;53.220;6.528;2022-12-11T07:43:19;-0.20;99.90
52965;DHT22;42923;53.220;6.528;2022-12-11T07:45:45;-0.10;99.90
52965;DHT22;42923;53.220;6.528;2022-12-11T07:48:11;-0.10;99.90
52965;DHT22;42923;53.220;6.528;2022-12-11T07:50:37;-0.10;99.90
52965;DHT22;42923;53.220;6.528;2022-12-11T07:53:03;-0.10;99.90
52965;DHT22;42923;53.220;6.528;2022-12-11T07:55:29;-0.10;99.90
52965;DHT22;42923;53.220;6.528;2022-12-11T07:57:56;-0.10;99.90
52965;DHT22;42923;53.220;6.528;2022-12-11T08:00:21;-0.10;99.90
52965;DHT22;42923;53.220;6.528;2022-12-11T08:02:47;-0.10;99.90
52965;DHT22;42923;53.220;6.528;2022-12-11T08:05:13;-0.10;99.90
52965;DHT22;42923;53.220;6.528;2022-12-11T08:07:39;-0.10;99.90
52965;DHT22;42923;53.220;6.528;2022-12-11T08:10:04;-0.10;99.90
52965;DHT22;42923;53.220;6.528;2022-12-11T08:12:30;-0.10;99.90
52965;DHT22;42923;53.220;6.528;2022-12-11T08:14:56;-0.10;99.90
52965;DHT22;42923;53.220;6.528;2022-12-11T08:17:22;-0.10;99.90
52965;DHT22;42923;53.220;6.528;2022-12-11T08:19:48;-0.10;99.90
52965;DHT22;42923;53.220;6.528;2022-12-11T08:22:13;-0.10;99.90
52965;DHT22;42923;53.220;6.528;2022-12-11T08:24:39;-0.10;99.90
52965;DHT22;42923;53.220;6.528;2022-12-11T08:27:05;-0.10;99.90
52965;DHT22;42923;53.220;6.528;2022-12-11T08:29:31;-0.10;99.90
52965;DHT22;42923;53.220;6.528;2022-12-11T08:31:57;0.00;99.90
52965;DHT22;42923;53.220;6.528;2022-12-11T08:34:22;0.00;99.90
52965;DHT22;42923;53.220;6.528;2022-12-11T08:36:48;0.00;99.90
52965;DHT22;42923;53.220;6.528;2022-12-11T08:39:14;0.00;99.90
52965;DHT22;42923;53.220;6.528;2022-12-11T08:41:40;0.00;99.90
52965;DHT22;42923;53.220;6.528;2022-12-11T08:44:12;0.00;99.90
52965;DHT22;42923;53.220;6.528;2022-12-11T08:46:38;0.00;99.90
52965;DHT22;42923;53.220;6.528;2022-12-11T08:49:04;0.00;99.90
52965;DHT22;42923;53.220;6.528;2022-12-11T08:51:30;0.00;99.90
52965;DHT22;42923;53.220;6.528;2022-12-11T08:53:58;0.00;99.90
52965;DHT22;42923;53.220;6.528;2022-12-11T08:56:25;0.00;99.90
52965;DHT22;42923;53.220;6.528;2022-12-11T08:58:51;0.00;99.90
52965;DHT22;42923;53.220;6.528;2022-12-11T09:01:21;0.40;99.90
52965;DHT22;42923;53.220;6.528;2022-12-11T09:03:47;0.00;99.90
52965;DHT22;42923;53.220;6.528;2022-12-11T09:06:16;0.00;99.90
52965;DHT22;42923;53.220;6.528;2022-12-11T09:08:43;0.00;99.90
52965;DHT22;42923;53.220;6.528;2022-12-11T09:11:12;0.20;99.90
52965;DHT22;42923;53.220;6.528;2022-12-11T09:13:38;0.00;99.90
52965;DHT22;42923;53.220;6.528;2022-12-11T09:16:06;0.00;99.90
52965;DHT22;42923;53.220;6.528;2022-12-11T09:18:32;0.00;99.90
52965;DHT22;42923;53.220;6.528;2022-12-11T09:20:59;0.00;99.90
52965;DHT22;42923;53.220;6.528;2022-12-11T09:23:25;0.00;99.90
52965;DHT22;42923;53.220;6.528;2022-12-11T09:25:51;0.00;99.90
52965;DHT22;42923;53.220;6.528;2022-12-11T09:28:17;0.00;99.90
52965;DHT22;42923;53.220;6.528;2022-12-11T09:30:42;0.00;99.90
52965;DHT22;42923;53.220;6.528;2022-12-11T09:33:08;0.10;99.90
52965;DHT22;42923;53.220;6.528;2022-12-11T09:35:34;0.00;99.90
52965;DHT22;42923;53.220;6.528;2022-12-11T09:37:59;0.10;99.90
52965;DHT22;42923;53.220;6.528;2022-12-11T09:40:25;0.10;99.90
52965;DHT22;42923;53.220;6.528;2022-12-11T09:43:02;0.10;99.90
52965;DHT22;42923;53.220;6.528;2022-12-11T09:45:30;0.10;99.90
52965;DHT22;42923;53.220;6.528;2022-12-11T09:47:59;0.10;99.90
52965;DHT22;42923;53.220;6.528;2022-12-11T09:50:29;0.10;99.90
52965;DHT22;42923;53.220;6.528;2022-12-11T09:55:51;0.10;99.90
52965;DHT22;42923;53.220;6.528;2022-12-11T10:01:13;0.10;99.90
52965;DHT22;42923;53.220;6.528;2022-12-11T10:04:03;0.10;99.90
52965;DHT22;42923;53.220;6.528;2022-12-11T10:10:14;0.10;99.90
52965;DHT22;42923;53.220;6.528;2022-12-11T10:17:59;0.20;99.90
52965;DHT22;42923;53.220;6.528;2022-12-11T10:20:34;0.20;99.90
52965;DHT22;42923;53.220;6.528;2022-12-11T10:23:07;0.10;99.90
52965;DHT22;42923;53.220;6.528;2022-12-11T10:25:41;0.20;99.90
52965;DHT22;42923;53.220;6.528;2022-12-11T10:28:15;0.20;99.90
52965;DHT22;42923;53.220;6.528;2022-12-11T10:33:45;0.20;99.90
52965;DHT22;42923;53.220;6.528;2022-12-11T10:36:19;0.20;99.90
52965;DHT22;42923;53.220;6.528;2022-12-11T10:38:45;0.30;99.90
52965;DHT22;42923;53.220;6.528;2022-12-11T10:41:17;0.20;99.90
52965;DHT22;42923;53.220;6.528;2022-12-11T10:43:48;0.30;99.90
52965;DHT22;42923;53.220;6.528;2022-12-11T10:46:22;0.20;99.90
52965;DHT22;42923;53.220;6.528;2022-12-11T10:48:54;0.30;99.90
52965;DHT22;42923;53.220;6.528;2022-12-11T10:51:23;0.30;99.90
52965;DHT22;42923;53.220;6.528;2022-12-11T10:53:54;0.30;99.90
52965;DHT22;42923;53.220;6.528;2022-12-11T10:56:27;0.30;99.90
52965;DHT22;42923;53.220;6.528;2022-12-11T10:58:55;0.40;99.90
52965;DHT22;42923;53.220;6.528;2022-12-11T11:01:23;0.30;99.90
52965;DHT22;42923;53.220;6.528;2022-12-11T11:04:05;0.30;99.90
52965;DHT22;42923;53.220;6.528;2022-12-11T11:06:37;0.30;99.90
52965;DHT22;42923;53.220;6.528;2022-12-11T11:09:03;0.30;99.90
52965;DHT22;42923;53.220;6.528;2022-12-11T11:11:37;0.30;99.90
52965;DHT22;42923;53.220;6.528;2022-12-11T11:14:15;0.30;99.90
52965;DHT22;42923;53.220;6.528;2022-12-11T11:16:46;0.30;99.90
52965;DHT22;42923;53.220;6.528;2022-12-11T11:19:31;0.30;99.90
52965;DHT22;42923;53.220;6.528;2022-12-11T11:22:04;0.40;99.90
52965;DHT22;42923;53.220;6.528;2022-12-11T11:27:00;0.40;99.90
52965;DHT22;42923;53.220;6.528;2022-12-11T11:29:32;0.40;99.90
52965;DHT22;42923;53.220;6.528;2022-12-11T11:32:17;0.40;99.90
52965;DHT22;42923;53.220;6.528;2022-12-11T11:34:44;0.40;99.90
52965;DHT22;42923;53.220;6.528;2022-12-11T11:37:32;0.50;99.90
52965;DHT22;42923;53.220;6.528;2022-12-11T11:40:05;0.50;99.90
52965;DHT22;42923;53.220;6.528;2022-12-11T11:42:44;0.50;99.90
52965;DHT22;42923;53.220;6.528;2022-12-11T11:45:25;0.50;99.90
52965;DHT22;42923;53.220;6.528;2022-12-11T11:50:44;0.50;99.90
52965;DHT22;42923;53.220;6.528;2022-12-11T11:53:16;0.50;99.90
52965;DHT22;42923;53.220;6.528;2022-12-11T11:58:27;0.70;99.90
52965;DHT22;42923;53.220;6.528;2022-12-11T12:00:55;0.80;99.90
52965;DHT22;42923;53.220;6.528;2022-12-11T12:03:22;0.50;99.90
52965;DHT22;42923;53.220;6.528;2022-12-11T12:06:03;0.50;99.90
52965;DHT22;42923;53.220;6.528;2022-12-11T12:14:23;0.60;99.90
52965;DHT22;42923;53.220;6.528;2022-12-11T12:17:11;0.60;99.90
52965;DHT22;42923;53.220;6.528;2022-12-11T12:20:01;0.60;99.90
52965;DHT22;42923;53.220;6.528;2022-12-11T12:22:44;0.60;99.90
52965;DHT22;42923;53.220;6.528;2022-12-11T12:25:27;0.60;99.90
52965;DHT22;42923;53.220;6.528;2022-12-11T12:28:03;0.60;99.90
52965;DHT22;42923;53.220;6.528;2022-12-11T12:30:40;0.50;99.90
52965;DHT22;42923;53.220;6.528;2022-12-11T12:36:45;0.50;99.90
52965;DHT22;42923;53.220;6.528;2022-12-11T12:39:36;0.60;99.90
52965;DHT22;42923;53.220;6.528;2022-12-11T12:42:21;0.60;99.90
52965;DHT22;42923;53.220;6.528;2022-12-11T12:47:35;0.60;99.90
52965;DHT22;42923;53.220;6.528;2022-12-11T12:50:07;0.60;99.90
52965;DHT22;42923;53.220;6.528;2022-12-11T12:52:39;0.70;99.90
52965;DHT22;42923;53.220;6.528;2022-12-11T12:55:19;0.70;99.90
52965;DHT22;42923;53.220;6.528;2022-12-11T12:57:48;0.70;99.90
52965;DHT22;42923;53.220;6.528;2022-12-11T13:00:39;0.70;99.90
52965;DHT22;42923;53.220;6.528;2022-12-11T13:03:18;0.70;99.90
52965;DHT22;42923;53.220;6.528;2022-12-11T13:06:08;0.80;99.90
52965;DHT22;42923;53.220;6.528;2022-12-11T13:08:48;0.70;99.90
52965;DHT22;42923;53.220;6.528;2022-12-11T13:11:17;0.70;99.90
52965;DHT22;42923;53.220;6.528;2022-12-11T13:14:00;0.70;99.90
52965;DHT22;42923;53.220;6.528;2022-12-11T13:16:37;0.70;99.90
52965;DHT22;42923;53.220;6.528;2022-12-11T13:19:25;0.70;99.90
52965;DHT22;42923;53.220;6.528;2022-12-11T13:25:27;0.70;99.90
52965;DHT22;42923;53.220;6.528;2022-12-11T13:28:17;0.70;99.90
52965;DHT22;42923;53.220;6.528;2022-12-11T13:30:44;0.70;99.90
52965;DHT22;42923;53.220;6.528;2022-12-11T13:33:17;0.70;99.90
52965;DHT22;42923;53.220;6.528;2022-12-11T13:35:44;0.50;99.90
52965;DHT22;42923;53.220;6.528;2022-12-11T13:38:16;0.70;99.90
52965;DHT22;42923;53.220;6.528;2022-12-11T13:40:45;0.80;99.90
52965;DHT22;42923;53.220;6.528;2022-12-11T13:43:26;0.70;99.90
52965;DHT22;42923;53.220;6.528;2022-12-11T13:46:02;0.70;99.90
52965;DHT22;42923;53.220;6.528;2022-12-11T13:51:16;0.70;99.90
52965;DHT22;42923;53.220;6.528;2022-12-11T13:53:42;0.70;99.90
52965;DHT22;42923;53.220;6.528;2022-12-11T13:56:20;0.70;99.90
52965;DHT22;42923;53.220;6.528;2022-12-11T13:58:47;0.70;99.90
52965;DHT22;42923;53.220;6.528;2022-12-11T14:01:24;0.70;99.90
52965;DHT22;42923;53.220;6.528;2022-12-11T14:04:06;0.70;99.90
52965;DHT22;42923;53.220;6.528;2022-12-11T14:06:33;0.70;99.90
52965;DHT22;42923;53.220;6.528;2022-12-11T14:09:01;0.70;99.90
52965;DHT22;42923;53.220;6.528;2022-12-11T14:11:34;1.10;99.90
52965;DHT22;42923;53.220;6.528;2022-12-11T14:14:03;0.70;99.90
52965;DHT22;42923;53.220;6.528;2022-12-11T14:16:30;0.90;99.90
52965;DHT22;42923;53.220;6.528;2022-12-11T14:19:02;0.70;99.90
52965;DHT22;42923;53.220;6.528;2022-12-11T14:21:29;0.70;99.90
52965;DHT22;42923;53.220;6.528;2022-12-11T14:24:00;0.70;99.90
52965;DHT22;42923;53.220;6.528;2022-12-11T14:26:31;1.00;99.90
52965;DHT22;42923;53.220;6.528;2022-12-11T14:28:57;0.60;99.90
52965;DHT22;42923;53.220;6.528;2022-12-11T14:31:36;0.60;99.90
52965;DHT22;42923;53.220;6.528;2022-12-11T14:34:10;0.60;99.90
52965;DHT22;42923;53.220;6.528;2022-12-11T14:36:38;0.60;99.90
52965;DHT22;42923;53.220;6.528;2022-12-11T14:40:07;0.60;99.90
52965;DHT22;42923;53.220;6.528;2022-12-11T14:42:23;0.50;99.90
52965;DHT22;42923;53.220;6.528;2022-12-11T14:45:17;0.50;99.90
52965;DHT22;42923;53.220;6.528;2022-12-11T14:47:43;0.50;99.90
52965;DHT22;42923;53.220;6.528;2022-12-11T14:50:26;0.50;99.90
52965;DHT22;42923;53.220;6.528;2022-12-11T14:52:57;0.50;99.90
52965;DHT22;42923;53.220;6.528;2022-12-11T14:55:28;0.50;99.90
52965;DHT22;42923;53.220;6.528;2022-12-11T14:58:13;0.70;99.90
52965;DHT22;42923;53.220;6.528;2022-12-11T15:00:39;0.80;99.90
52965;DHT22;42923;53.220;6.528;2022-12-11T15:05:53;0.50;99.90
52965;DHT22;42923;53.220;6.528;2022-12-11T15:08:28;0.40;99.90
52965;DHT22;42923;53.220;6.528;2022-12-11T15:13:29;0.40;99.90
52965;DHT22;42923;53.220;6.528;2022-12-11T15:15:55;0.40;99.90
52965;DHT22;42923;53.220;6.528;2022-12-11T15:18:32;0.40;99.90
52965;DHT22;42923;53.220;6.528;2022-12-11T15:21:02;0.40;99.90
52965;DHT22;42923;53.220;6.528;2022-12-11T15:23:28;0.40;99.90
52965;DHT22;42923;53.220;6.528;2022-12-11T15:25:58;0.40;99.90
52965;DHT22;42923;53.220;6.528;2022-12-11T15:28:35;0.40;99.90
52965;DHT22;42923;53.220;6.528;2022-12-11T15:31:04;0.40;99.90
52965;DHT22;42923;53.220;6.528;2022-12-11T15:33:31;0.40;99.90
52965;DHT22;42923;53.220;6.528;2022-12-11T15:36:04;0.40;99.90
52965;DHT22;42923;53.220;6.528;2022-12-11T15:38:34;0.40;99.90
52965;DHT22;42923;53.220;6.528;2022-12-11T15:41:02;0.40;99.90
52965;DHT22;42923;53.220;6.528;2022-12-11T15:43:31;0.40;99.90
52965;DHT22;42923;53.220;6.528;2022-12-11T15:46:01;0.40;99.90
52965;DHT22;42923;53.220;6.528;2022-12-11T15:48:27;0.40;99.90
52965;DHT22;42923;53.220;6.528;2022-12-11T15:50:53;0.50;99.90
52965;DHT22;42923;53.220;6.528;2022-12-11T15:53:18;0.30;99.90
52965;DHT22;42923;53.220;6.528;2022-12-11T15:55:45;0.40;99.90
52965;DHT22;42923;53.220;6.528;2022-12-11T15:58:17;0.40;99.90
52965;DHT22;42923;53.220;6.528;2022-12-11T16:00:43;0.40;99.90
52965;DHT22;42923;53.220;6.528;2022-12-11T16:03:14;0.40;99.90
52965;DHT22;42923;53.220;6.528;2022-12-11T16:05:41;0.30;99.90
52965;DHT22;42923;53.220;6.528;2022-12-11T16:08:08;0.30;99.90
52965;DHT22;42923;53.220;6.528;2022-12-11T16:10:37;0.40;99.90
52965;DHT22;42923;53.220;6.528;2022-12-11T16:13:02;0.40;99.90
52965;DHT22;42923;53.220;6.528;2022-12-11T16:15:28;0.30;99.90
52965;DHT22;42923;53.220;6.528;2022-12-11T16:18:01;0.40;99.90
52965;DHT22;42923;53.220;6.528;2022-12-11T16:20:28;0.30;99.90
52965;DHT22;42923;53.220;6.528;2022-12-11T16:22:56;0.30;99.90
52965;DHT22;42923;53.220;6.528;2022-12-11T16:25:23;0.30;99.90
52965;DHT22;42923;53.220;6.528;2022-12-11T16:27:49;0.30;99.90
52965;DHT22;42923;53.220;6.528;2022-12-11T16:30:15;0.30;99.90
52965;DHT22;42923;53.220;6.528;2022-12-11T16:32:41;0.30;99.90
52965;DHT22;42923;53.220;6.528;2022-12-11T16:35:07;0.30;99.90
52965;DHT22;42923;53.220;6.528;2022-12-11T16:37:32;1.10;99.90
52965;DHT22;42923;53.220;6.528;2022-12-11T16:39:58;0.30;99.90
52965;DHT22;42923;53.220;6.528;2022-12-11T16:42:24;0.30;99.90
52965;DHT22;42923;53.220;6.528;2022-12-11T16:44:50;0.30;99.90
52965;DHT22;42923;53.220;6.528;2022-12-11T16:47:15;0.30;99.90
52965;DHT22;42923;53.220;6.528;2022-12-11T16:49:41;0.30;99.90
52965;DHT22;42923;53.220;6.528;2022-12-11T16:52:07;0.30;99.90
52965;DHT22;42923;53.220;6.528;2022-12-11T16:54:33;0.30;99.90
52965;DHT22;42923;53.220;6.528;2022-12-11T16:56:59;0.20;99.90